Lynwood, California
Current Conditions -  °F | °C
As of 3:47 AM on Sunday 21 Dec 2014 (Local Time) from KCQT Reporting Station
Haze Haze  
Wind Chill: 52°   Ceiling: Unl
Heat Index: 52°   Visibility: 6mi
Dew Point: 47°   Wind: 0mph
Humidity: 83%   Direction: NA
Pressure: 30.11"   Gusts: NA
Location:  33.93°N, 118.19°W
Report Text: KCQT 211147Z AUTO 00000KT 6SM HZ CLR 11/08 A3011 RMK AO2 SLP195 T01110083 10144 20111 58010
Loading
Personal Weather Stations






























Interactive Weather Map New forecast layout! Learn more

10-Day Weather Forecast

Advertisements
Track Severe Weather on mobile